createdAt,value
2018-02-04T00:01:37.802Z,92.20
2018-02-04T00:04:06.471Z,92.40
2018-02-04T00:06:39.924Z,92.50
2018-02-04T00:09:08.724Z,92.30
2018-02-04T00:11:37.031Z,92.50
2018-02-04T00:14:09.303Z,92.60
2018-02-04T00:16:38.429Z,92.60
2018-02-04T00:19:11.577Z,92.80
2018-02-04T00:21:41.735Z,92.80
2018-02-04T00:24:16.552Z,92.80
2018-02-04T00:26:44.096Z,92.50
2018-02-04T00:29:12.225Z,92.70
2018-02-04T00:31:41.946Z,93.00
2018-02-04T00:34:11.695Z,92.60
2018-02-04T00:36:41.132Z,92.70
2018-02-04T00:39:09.303Z,93.30
2018-02-04T00:41:41.784Z,93.10
2018-02-04T00:44:10.980Z,93.00
2018-02-04T00:49:52.216Z,92.80
2018-02-04T00:52:19.808Z,92.90
2018-02-04T00:54:48.097Z,93.00
2018-02-04T00:57:15.592Z,92.90
2018-02-04T00:59:43.995Z,92.80
2018-02-04T01:02:12.600Z,92.40
2018-02-04T01:04:41.628Z,92.80
2018-02-04T01:07:14.322Z,92.50
2018-02-04T01:09:41.906Z,92.30
2018-02-04T01:12:11.529Z,92.20
2018-02-04T01:14:40.700Z,91.70
2018-02-04T01:17:22.792Z,91.70
2018-02-04T01:19:50.345Z,91.90
2018-02-04T01:22:17.831Z,91.50
2018-02-04T01:24:56.383Z,91.00
2018-02-04T01:27:41.150Z,90.60
2018-02-04T01:30:11.624Z,89.60
2018-02-04T01:32:49.750Z,89.00
2018-02-04T01:35:17.271Z,88.70
2018-02-04T01:41:05.703Z,86.40
2018-02-04T01:43:40.345Z,86.20
2018-02-04T01:46:22.390Z,85.80
2018-02-04T01:48:49.923Z,85.50
2018-02-04T01:51:17.444Z,86.20
2018-02-04T01:53:46.527Z,86.20
2018-02-04T01:56:14.040Z,85.20
2018-02-04T01:58:47.273Z,85.50
2018-02-04T02:01:15.556Z,84.90
2018-02-04T02:03:44.043Z,86.00
2018-02-04T02:06:50.085Z,85.50
2018-02-04T02:09:25.008Z,85.00
2018-02-04T02:12:10.700Z,85.40
2018-02-04T02:14:44.623Z,86.10
2018-02-04T02:17:12.139Z,85.80
2018-02-04T02:19:48.840Z,85.90
2018-02-04T02:22:46.045Z,86.30
2018-02-04T02:25:14.404Z,86.30
2018-02-04T02:27:41.921Z,86.40
2018-02-04T02:30:16.869Z,87.10
2018-02-04T02:32:46.475Z,86.90
2018-02-04T02:35:14.800Z,86.90
2018-02-04T02:37:43.828Z,85.50
2018-02-04T02:43:20.445Z,85.30
2018-02-04T02:46:15.892Z,85.20
2018-02-04T02:48:44.152Z,85.40
2018-02-04T02:51:15.009Z,85.30
2018-02-04T02:53:42.505Z,85.10
2018-02-04T02:56:19.154Z,85.00
2018-02-04T02:58:52.233Z,84.90
2018-02-04T03:04:20.361Z,84.60
2018-02-04T03:06:54.737Z,84.80
2018-02-04T03:12:38.311Z,85.30
2018-02-04T03:15:47.287Z,84.70
2018-02-04T03:18:16.175Z,84.60
2018-02-04T03:21:17.812Z,85.50
2018-02-04T03:23:55.433Z,84.40
2018-02-04T03:26:24.049Z,84.40
2018-02-04T03:31:47.488Z,84.40
2018-02-04T03:34:15.112Z,84.80
2018-02-04T03:37:11.688Z,83.90
2018-02-04T03:39:51.933Z,81.70
2018-02-04T03:42:19.455Z,81.80
2018-02-04T03:44:55.257Z,81.50
2018-02-04T03:47:41.223Z,81.00
2018-02-04T03:50:18.152Z,80.10
2018-02-04T03:52:46.434Z,79.50
2018-02-04T03:55:21.380Z,79.40
2018-02-04T03:57:48.924Z,78.20
2018-02-04T04:00:17.021Z,78.70
2018-02-04T04:02:51.543Z,78.50
2018-02-04T04:05:40.817Z,79.00
2018-02-04T04:08:11.887Z,78.00
2018-02-04T04:11:11.661Z,77.90
2018-02-04T04:16:53.296Z,77.80
2018-02-04T04:19:26.301Z,77.30
2018-02-04T04:21:53.819Z,77.10
2018-02-04T04:24:27.786Z,77.80
2018-02-04T04:27:11.691Z,77.30
2018-02-04T04:29:48.040Z,77.40
2018-02-04T04:32:24.277Z,77.40
2018-02-04T04:34:51.772Z,76.00
2018-02-04T04:43:19.346Z,73.60
2018-02-04T04:45:55.209Z,74.20
2018-02-04T04:51:17.620Z,71.00
2018-02-04T04:54:10.730Z,71.20
2018-02-04T04:56:49.543Z,71.20
2018-02-04T04:59:20.747Z,70.20
2018-02-04T05:01:49.789Z,71.20
2018-02-04T05:07:12.433Z,69.00
2018-02-04T05:09:51.953Z,69.00
2018-02-04T05:12:22.379Z,70.30
2018-02-04T05:14:49.888Z,69.90
2018-02-04T05:17:17.491Z,68.50
2018-02-04T05:19:45.819Z,68.60
2018-02-04T05:22:53.921Z,68.60
2018-02-04T05:25:23.257Z,67.30
2018-02-04T05:27:51.528Z,67.50
2018-02-04T05:30:19.016Z,67.40
2018-02-04T05:32:46.519Z,66.70
2018-02-04T05:38:43.669Z,66.80
2018-02-04T05:41:17.636Z,66.60
2018-02-04T05:43:55.967Z,65.40
2018-02-04T05:46:42.132Z,65.00
2018-02-04T05:49:14.244Z,64.90
2018-02-04T05:52:17.369Z,64.80
2018-02-04T05:54:47.780Z,66.10
2018-02-04T05:57:15.267Z,65.80
2018-02-04T05:59:43.660Z,65.20
2018-02-04T06:02:19.860Z,65.10
2018-02-04T06:04:47.449Z,64.90
2018-02-04T06:07:14.945Z,64.90
2018-02-04T06:09:52.879Z,65.60
2018-02-04T06:12:21.136Z,66.20
2018-02-04T06:14:48.651Z,66.00
2018-02-04T06:17:16.141Z,65.50
2018-02-04T06:19:44.407Z,66.10
2018-02-04T06:25:20.260Z,66.10
2018-02-04T06:27:47.748Z,66.70
2018-02-04T06:30:15.577Z,66.50
2018-02-04T06:32:43.064Z,65.70
2018-02-04T06:35:11.385Z,66.60
2018-02-04T06:37:41.256Z,66.10
2018-02-04T06:40:11.444Z,65.80
2018-02-04T06:45:47.089Z,66.50
2018-02-04T06:48:22.296Z,66.60
2018-02-04T06:50:50.647Z,66.80
2018-02-04T06:53:18.131Z,66.20
2018-02-04T06:55:52.748Z,67.30
2018-02-04T06:58:21.009Z,66.30
2018-02-04T07:00:49.946Z,65.30
2018-02-04T07:03:18.204Z,66.40
2018-02-04T07:05:45.709Z,66.40
2018-02-04T07:08:14.000Z,65.80
2018-02-04T07:10:42.272Z,66.20
2018-02-04T07:13:10.784Z,66.20
2018-02-04T07:15:49.747Z,65.70
2018-02-04T07:18:20.532Z,66.70
2018-02-04T07:20:48.076Z,66.70
2018-02-04T07:23:16.328Z,67.10
2018-02-04T07:25:43.828Z,67.00
2018-02-04T07:28:14.606Z,67.20
2018-02-04T07:30:42.112Z,67.00
2018-02-04T07:33:11.923Z,67.30
2018-02-04T07:35:41.928Z,66.80
2018-02-04T07:38:11.360Z,67.60
2018-02-04T07:40:40.142Z,66.80
2018-02-04T07:43:17.951Z,67.20
2018-02-04T07:45:45.452Z,67.10
2018-02-04T07:48:12.945Z,66.60
2018-02-04T07:50:42.248Z,66.90
2018-02-04T07:53:10.032Z,66.80
2018-02-04T07:55:39.246Z,66.30
2018-02-04T07:58:09.307Z,66.80
2018-02-04T08:00:40.173Z,66.80
2018-02-04T08:03:09.709Z,67.40
2018-02-04T08:05:38.894Z,67.90
2018-02-04T08:08:10.280Z,66.70
2018-02-04T08:10:41.488Z,66.70
2018-02-04T08:13:10.285Z,66.50
2018-02-04T08:15:40.517Z,66.50
2018-02-04T08:18:09.795Z,66.90
2018-02-04T08:20:46.953Z,67.80
2018-02-04T08:23:15.433Z,67.60
2018-02-04T08:25:48.316Z,68.10
2018-02-04T08:28:15.840Z,68.90
2018-02-04T08:30:44.122Z,67.60
2018-02-04T08:33:14.333Z,67.50
2018-02-04T08:35:41.841Z,67.70
2018-02-04T08:38:10.418Z,66.30
2018-02-04T08:40:39.536Z,65.40
2018-02-04T08:43:10.180Z,64.50
2018-02-04T08:45:40.273Z,64.40
2018-02-04T08:48:11.257Z,58.10
2018-02-04T08:50:48.935Z,58.10
2018-02-04T08:53:22.948Z,54.90
2018-02-04T08:55:52.377Z,53.20
2018-02-04T08:58:20.740Z,53.20
2018-02-04T09:00:48.325Z,54.20
2018-02-04T09:03:16.581Z,57.00
2018-02-04T09:05:44.109Z,56.50
2018-02-04T09:08:12.684Z,57.30
2018-02-04T09:10:40.316Z,58.00
2018-02-04T09:13:10.654Z,59.40
2018-02-04T09:15:40.253Z,60.50
2018-02-04T09:18:11.662Z,62.20
2018-02-04T09:20:40.009Z,62.20
2018-02-04T09:23:18.530Z,64.90
2018-02-04T09:25:46.932Z,65.20
2018-02-04T09:28:15.185Z,65.40
2018-02-04T09:30:42.680Z,65.40
2018-02-04T09:33:16.753Z,65.50
2018-02-04T09:35:44.295Z,65.70
2018-02-04T09:38:12.588Z,66.00
2018-02-04T09:40:44.418Z,66.00
2018-02-04T09:43:13.923Z,66.10
2018-02-04T09:45:45.585Z,66.20
2018-02-04T09:48:13.072Z,66.50
2018-02-04T09:50:40.557Z,66.60
2018-02-04T09:53:11.610Z,67.50
2018-02-04T09:55:39.449Z,67.60
2018-02-04T09:58:09.892Z,67.80
2018-02-04T10:00:48.724Z,68.10
2018-02-04T10:03:16.333Z,68.90
2018-02-04T10:05:44.617Z,69.40
2018-02-04T10:08:41.028Z,69.20
2018-02-04T10:11:20.045Z,70.40
2018-02-04T10:13:47.528Z,73.20
2018-02-04T10:16:15.121Z,75.00
2018-02-04T10:18:43.382Z,75.30
2018-02-04T10:21:11.185Z,75.30
2018-02-04T10:23:42.024Z,75.60
2018-02-04T10:26:11.638Z,76.50
2018-02-04T10:28:42.653Z,79.30
2018-02-04T10:31:12.672Z,79.10
2018-02-04T10:33:48.358Z,79.00
2018-02-04T10:36:16.080Z,80.80
2018-02-04T10:44:39.713Z,83.00
2018-02-04T10:47:12.661Z,84.00
2018-02-04T10:49:40.996Z,82.40
2018-02-04T10:52:09.653Z,82.40
2018-02-04T10:54:41.623Z,84.70
2018-02-04T10:57:09.537Z,84.10
2018-02-04T10:59:44.304Z,83.10
2018-02-04T11:02:12.004Z,85.10
2018-02-04T11:04:41.019Z,85.10
2018-02-04T11:07:11.524Z,86.50
2018-02-04T11:09:41.853Z,86.30
2018-02-04T11:12:11.832Z,88.40
2018-02-04T11:14:40.745Z,87.90
2018-02-04T11:17:09.483Z,89.30
2018-02-04T11:19:39.736Z,89.70
2018-02-04T11:22:09.576Z,89.70
2018-02-04T11:24:46.565Z,89.40
2018-02-04T11:27:14.040Z,90.20
2018-02-04T11:29:42.204Z,90.10
2018-02-04T11:32:20.640Z,89.10
2018-02-04T11:34:48.142Z,89.10
2018-02-04T11:37:15.623Z,89.10
2018-02-04T11:39:43.228Z,90.10
2018-02-04T11:42:11.489Z,90.60
2018-02-04T11:44:41.121Z,90.60
2018-02-04T11:47:13.165Z,90.80
2018-02-04T11:49:41.093Z,90.70
2018-02-04T11:52:10.921Z,91.80
2018-02-04T11:54:39.762Z,91.90
2018-02-04T11:57:09.649Z,91.60
2018-02-04T11:59:39.552Z,91.40
2018-02-04T12:02:09.016Z,92.60
2018-02-04T12:04:39.027Z,91.40
2018-02-04T12:07:10.532Z,91.30
2018-02-04T12:09:39.524Z,91.50
2018-02-04T12:12:08.948Z,90.90
2018-02-04T12:14:39.815Z,91.80
2018-02-04T12:17:09.743Z,91.60
2018-02-04T12:19:39.134Z,91.60
2018-02-04T12:22:09.063Z,91.50
2018-02-04T12:24:48.446Z,91.40
2018-02-04T12:27:15.960Z,91.70
2018-02-04T12:29:44.251Z,92.40
2018-02-04T12:32:12.512Z,92.10
2018-02-04T12:34:40.064Z,92.10
2018-02-04T12:37:08.411Z,92.10
2018-02-04T12:39:37.783Z,91.60
2018-02-04T12:42:06.942Z,91.60
2018-02-04T12:44:36.076Z,91.50
2018-02-04T12:47:07.291Z,91.50
2018-02-04T12:49:35.117Z,91.30
2018-02-04T12:52:05.077Z,91.10
2018-02-04T12:54:36.004Z,86.00
2018-02-04T12:57:16.355Z,85.90
2018-02-04T12:59:43.873Z,85.10
2018-02-04T13:02:11.364Z,84.90
2018-02-04T13:04:40.148Z,87.60
2018-02-04T13:07:09.232Z,83.20
2018-02-04T13:09:38.393Z,84.20
2018-02-04T13:12:16.237Z,85.80
2018-02-04T13:14:43.749Z,83.90
2018-02-04T13:17:11.257Z,84.30
2018-02-04T13:19:39.559Z,85.20
2018-02-04T13:22:08.130Z,80.50
2018-02-04T13:24:36.815Z,80.50
2018-02-04T13:27:05.405Z,83.60
2018-02-04T13:29:35.066Z,83.10
2018-02-04T13:32:13.776Z,82.90
2018-02-04T13:34:41.389Z,84.30
2018-02-04T13:37:08.939Z,84.30
2018-02-04T13:39:36.675Z,84.50
2018-02-04T13:42:04.622Z,85.20
2018-02-04T13:44:34.336Z,85.10
2018-02-04T13:47:13.512Z,85.00
2018-02-04T13:49:52.040Z,82.60
2018-02-04T13:52:19.531Z,83.40
2018-02-04T13:54:47.153Z,82.60
2018-02-04T13:57:15.284Z,84.40
2018-02-04T13:59:53.700Z,83.80
2018-02-04T14:02:21.188Z,84.70
2018-02-04T14:04:48.792Z,83.60
2018-02-04T14:07:17.684Z,81.60
2018-02-04T14:09:45.510Z,81.70
2018-02-04T14:12:13.456Z,78.70
2018-02-04T14:14:42.240Z,83.60
2018-02-04T14:17:11.767Z,83.60
2018-02-04T14:19:42.248Z,76.20
2018-02-04T14:22:11.247Z,76.30
2018-02-04T14:24:39.575Z,76.40
2018-02-04T14:27:07.396Z,76.20
2018-02-04T14:29:34.913Z,75.90
2018-02-04T14:32:02.701Z,74.20
2018-02-04T14:34:30.472Z,73.40
2018-02-04T14:36:58.007Z,74.20
2018-02-04T14:39:25.507Z,75.40
2018-02-04T14:41:53.037Z,76.20
2018-02-04T14:44:21.307Z,78.30
2018-02-04T14:46:48.814Z,78.20
2018-02-04T14:49:16.428Z,76.50
2018-02-04T14:51:44.701Z,76.30
2018-02-04T14:54:13.413Z,74.20
2018-02-04T14:56:51.929Z,71.70
2018-02-04T14:59:19.413Z,71.70
2018-02-04T15:01:56.897Z,71.00
2018-02-04T15:04:24.449Z,70.90
2018-02-04T15:06:51.991Z,71.50
2018-02-04T15:09:19.504Z,70.50
2018-02-04T15:11:48.704Z,74.00
2018-02-04T15:14:20.487Z,72.70
2018-02-04T15:16:49.916Z,72.60
2018-02-04T15:19:19.220Z,73.00
2018-02-04T15:21:50.004Z,73.40
2018-02-04T15:24:28.229Z,73.40
2018-02-04T15:26:55.739Z,73.30
2018-02-04T15:29:24.032Z,77.00
2018-02-04T15:31:52.299Z,75.70
2018-02-04T15:34:19.991Z,75.70
2018-02-04T15:36:50.740Z,75.50
2018-02-04T15:39:21.140Z,76.00
2018-02-04T15:41:50.064Z,75.90
2018-02-04T15:44:20.529Z,77.30
2018-02-04T15:46:52.797Z,78.90
2018-02-04T15:49:20.869Z,78.90
2018-02-04T15:51:51.092Z,79.40
2018-02-04T15:54:19.440Z,77.80
2018-02-04T15:56:59.876Z,79.60
2018-02-04T15:59:27.472Z,79.60
2018-02-04T16:01:55.746Z,82.10
2018-02-04T16:04:23.352Z,81.80
2018-02-04T16:06:54.072Z,78.80
2018-02-04T16:09:21.577Z,79.20
2018-02-04T16:11:49.877Z,82.00
2018-02-04T16:14:21.168Z,80.80
2018-02-04T16:16:51.545Z,80.80
2018-02-04T16:19:20.622Z,79.90
2018-02-04T16:21:51.377Z,79.70
2018-02-04T16:24:29.180Z,79.60
2018-02-04T16:27:02.693Z,79.50
2018-02-04T16:29:33.692Z,79.40
2018-02-04T16:32:08.680Z,79.90
2018-02-04T16:34:36.771Z,80.10
2018-02-04T16:37:06.933Z,79.10
2018-02-04T16:39:44.628Z,79.50
2018-02-04T16:42:38.791Z,82.40
2018-02-04T16:45:09.034Z,82.40
2018-02-04T16:47:37.911Z,82.40
2018-02-04T16:50:07.461Z,84.10
2018-02-04T16:52:37.343Z,85.20
2018-02-04T16:55:15.732Z,85.20
2018-02-04T16:57:43.246Z,86.30
2018-02-04T17:00:10.740Z,86.60
2018-02-04T17:02:39.082Z,89.00
2018-02-04T17:05:07.668Z,89.00
2018-02-04T17:07:37.525Z,88.60
2018-02-04T17:10:07.296Z,88.00
2018-02-04T17:12:36.882Z,88.20
2018-02-04T17:15:05.988Z,88.10
2018-02-04T17:17:36.178Z,88.70
2018-02-04T17:20:06.106Z,90.00
2018-02-04T17:25:35.746Z,90.00
2018-02-04T17:28:10.599Z,88.80
2018-02-04T17:30:38.292Z,90.00
2018-02-04T17:33:06.704Z,87.80
2018-02-04T17:35:35.409Z,87.70
2018-02-04T17:38:05.608Z,88.70
2018-02-04T17:40:36.100Z,91.10
2018-02-04T17:43:06.364Z,91.00
2018-02-04T17:45:36.734Z,92.00
2018-02-04T17:48:07.120Z,94.00
2018-02-04T17:50:37.136Z,93.80
2018-02-04T17:53:06.652Z,94.80
2018-02-04T17:55:37.036Z,95.90
2018-02-04T17:58:07.021Z,95.90
2018-02-04T18:00:37.199Z,95.60
2018-02-04T18:03:06.324Z,95.60
2018-02-04T18:05:36.809Z,96.10
2018-02-04T18:08:07.296Z,96.10
2018-02-04T18:10:36.685Z,95.60
2018-02-04T18:13:05.553Z,95.40
2018-02-04T18:15:44.029Z,95.20
2018-02-04T18:18:11.545Z,95.00
2018-02-04T18:20:39.840Z,95.40
2018-02-04T18:23:08.265Z,96.20
2018-02-04T18:25:37.212Z,96.20
2018-02-04T18:28:06.548Z,96.30
2018-02-04T18:30:35.828Z,96.60
2018-02-04T18:33:06.801Z,96.70
2018-02-04T18:35:45.275Z,96.70
2018-02-04T18:38:12.793Z,96.70
2018-02-04T18:40:40.284Z,96.60
2018-02-04T18:43:08.668Z,96.60
2018-02-04T18:45:37.772Z,96.50
2018-02-04T18:48:07.139Z,96.00
2018-02-04T18:50:35.818Z,95.70
2018-02-04T18:53:04.759Z,95.10
2018-02-04T18:55:34.340Z,94.90
2018-02-04T18:58:05.858Z,94.70
2018-02-04T19:00:35.763Z,94.90
2018-02-04T19:03:05.865Z,95.00
2018-02-04T19:05:44.389Z,95.30
2018-02-04T19:08:11.900Z,95.40
2018-02-04T19:10:39.442Z,94.60
2018-02-04T19:13:07.242Z,94.30
2018-02-04T19:15:45.493Z,94.30
2018-02-04T19:18:13.012Z,93.40
2018-02-04T19:20:40.676Z,93.60
2018-02-04T19:23:08.251Z,93.60
2018-02-04T19:25:46.088Z,93.50
2018-02-04T19:28:13.579Z,93.10
2018-02-04T19:30:41.097Z,93.20
2018-02-04T19:33:08.677Z,93.80
2018-02-04T19:35:36.676Z,94.10
2018-02-04T19:38:04.622Z,94.10
2018-02-04T19:40:32.571Z,94.20
2018-02-04T19:43:01.652Z,94.20
2018-02-04T19:45:41.658Z,94.40
2018-02-04T19:48:09.283Z,94.30
2018-02-04T19:50:37.129Z,94.60
2018-02-04T19:53:05.746Z,94.40
2018-02-04T19:55:35.581Z,94.50
2018-02-04T19:58:04.837Z,94.50
2018-02-04T20:00:35.405Z,93.40
2018-02-04T20:03:04.776Z,93.40
2018-02-04T20:05:34.732Z,93.30
2018-02-04T20:08:04.570Z,92.80
2018-02-04T20:10:34.008Z,92.80
2018-02-04T20:13:03.763Z,92.40
2018-02-04T20:15:33.136Z,92.60
2018-02-04T20:18:02.597Z,92.60
2018-02-04T20:20:42.352Z,92.60
2018-02-04T20:23:09.872Z,92.20
2018-02-04T20:25:38.260Z,92.40
2018-02-04T20:28:07.091Z,92.20
2018-02-04T20:30:35.476Z,92.20
2018-02-04T20:33:14.944Z,91.70
2018-02-04T20:35:42.456Z,91.90
2018-02-04T20:38:09.975Z,91.60
2018-02-04T20:40:37.709Z,91.20
2018-02-04T20:43:15.796Z,91.30
2018-02-04T20:45:43.315Z,90.70
2018-02-04T20:48:11.612Z,90.70
2018-02-04T20:50:39.887Z,91.00
2018-02-04T20:53:08.395Z,91.00
2018-02-04T20:55:36.843Z,91.00
2018-02-04T20:58:07.127Z,91.40
2018-02-04T21:00:47.192Z,90.90
2018-02-04T21:03:15.481Z,90.70
2018-02-04T21:05:43.764Z,90.70
2018-02-04T21:08:12.024Z,90.90
2018-02-04T21:10:39.536Z,90.90
2018-02-04T21:13:07.817Z,91.00
2018-02-04T21:15:36.089Z,91.00
2018-02-04T21:18:03.955Z,90.90
2018-02-04T21:20:32.636Z,91.30
2018-02-04T21:23:11.222Z,91.30
2018-02-04T21:25:38.736Z,90.80
2018-02-04T21:28:06.960Z,91.70
2018-02-04T21:30:36.901Z,92.10
2018-02-04T21:33:07.260Z,92.40
2018-02-04T21:35:36.365Z,92.40
2018-02-04T21:38:06.367Z,92.00
2018-02-04T21:40:36.469Z,92.00
2018-02-04T21:43:06.025Z,91.60
2018-02-04T21:45:35.789Z,91.70
2018-02-04T21:48:06.082Z,91.70
2018-02-04T21:50:35.488Z,91.80
2018-02-04T21:53:05.937Z,92.00
2018-02-04T21:55:34.854Z,92.00
2018-02-04T21:58:03.716Z,91.90
2018-02-04T22:00:33.199Z,91.90
2018-02-04T22:03:13.743Z,92.30
2018-02-04T22:05:42.016Z,93.50
2018-02-04T22:08:09.516Z,93.50
2018-02-04T22:10:37.827Z,94.20
2018-02-04T22:13:06.162Z,94.20
2018-02-04T22:15:33.996Z,94.30
2018-02-04T22:18:03.078Z,94.60
2018-02-04T22:20:33.616Z,94.60
2018-02-04T22:23:03.660Z,94.50
2018-02-04T22:25:32.066Z,94.70
2018-02-04T22:28:03.388Z,94.90
2018-02-04T22:30:34.680Z,95.10
2018-02-04T22:33:04.118Z,95.50
2018-02-04T22:35:34.204Z,95.50
2018-02-04T22:38:04.995Z,95.50
2018-02-04T22:40:33.846Z,95.40
2018-02-04T22:43:05.417Z,95.50
2018-02-04T22:45:35.754Z,95.60
2018-02-04T22:48:04.739Z,95.60
2018-02-04T22:50:34.037Z,95.50
2018-02-04T22:53:04.972Z,95.40
2018-02-04T22:55:33.844Z,95.50
2018-02-04T22:58:03.027Z,95.10
2018-02-04T23:00:32.090Z,95.00
2018-02-04T23:03:01.515Z,95.10
2018-02-04T23:05:29.140Z,95.20
2018-02-04T23:07:57.434Z,95.30
2018-02-04T23:10:25.696Z,95.10
2018-02-04T23:12:53.200Z,95.10
2018-02-04T23:15:22.266Z,94.80
2018-02-04T23:17:49.918Z,94.80
2018-02-04T23:20:19.051Z,94.80
2018-02-04T23:22:48.416Z,94.50
2018-02-04T23:25:19.697Z,94.40
2018-02-04T23:27:48.980Z,94.60
2018-02-04T23:30:17.404Z,94.50
2018-02-04T23:32:47.548Z,94.40
2018-02-04T23:35:18.201Z,94.60
2018-02-04T23:37:47.891Z,94.50
2018-02-04T23:40:27.464Z,93.20
2018-02-04T23:42:54.985Z,93.20
2018-02-04T23:45:23.317Z,93.10
2018-02-04T23:47:52.134Z,93.10
2018-02-04T23:50:19.982Z,93.20
2018-02-04T23:52:50.089Z,93.60
2018-02-04T23:55:21.517Z,93.60
2018-02-04T23:57:50.769Z,93.70
